Haymarket, VA (20169)

8:48 PM EDT on June 28, 2017 (GMT -0400)
Logmill Road | | Change Station

Elev 410 ft 38.90 °N, 77.65 °W | Updated 4 seconds ago

Clear
Clear
68.1 °F
Feels Like 68.1 °F
N
0.0
Wind Variable Wind from SW

Today
High -- | Low -- °F
--% Chance of Precip.
Yesterday
High -- | Low -- °F
Precip. -- in
Pressure 30.12 in
Visibility 10.0 miles
Clouds Scattered Clouds 10000 ft
Mostly Cloudy 25000 ft
Dew Point 57 °F
Humidity 68%
Rainfall 0.00 in
Snow Depth Not available.
5:47 AM 8:39 PM
Waxing Crescent, 30% visible
METAR KIAD 282352Z 16006KT 10SM SCT100 BKN250 24/09 A3013 RMK AO2 SLP200 T02390094 10267 20239 56008
Pressure 30.12 in
Visibility 10.0 miles
Clouds Scattered Clouds 10000 ft
Mostly Cloudy 25000 ft
Dew Point 57 °F
Humidity 68%
Rainfall 0.00 in
Snow Depth Not available.
5:47 AM 8:39 PM
Waxing Crescent, 30% visible
METAR KIAD 282352Z 16006KT 10SM SCT100 BKN250 24/09 A3013 RMK AO2 SLP200 T02390094 10267 20239 56008

Get Severe Weather Alerts

Thanks for signing up!

Be on the lookout for a verification email in your inbox.

You'll start receiving the daily forecast at 6 AM.

×

10-Day Weather Forecast

Almanac

Astronomy

Jun. 28, 2017 Rise Set
Actual Time
Civil Twilight
Nautical Twilight
Astronomical Twilight
Moon
Length of Visible Light
Length of Day
Tomorrow will be .
, % of the Moon is Illuminated

Today's Extremes

State Highs State Lows

Community

WunderPhotos

Category 6

Welcome to Category 6. This is the collective home for Weather Underground's featured writeups by Dr. Jeff Masters (right), Bob Henson (left), Chris Burt, and other regular contributors.

Nearby

Air Quality

  Air Quality AQ Index Pollutant
Not available.

Snow Depth

Station Depth Elevation

Earthquake Activity

City Distance Mag. Time & Date
Minimum magnitude displayed is 2.5.

Coastal Water Temperatures

Place Temperature

Stations

Nearby Weather Stations

Station Location Temp. Windchill Dew Point Humidity Wind Precip. Elev Updated Type
                   

Watches & Warnings

There are currently no watches in effect.